Airfield :
LOGIN :

Register | Disclaimer

   EN    FR    IT 

 










Legend :    VFR   Marginal VFR   IFR   Intensive IFR   Very Intensive IFR
Visi :
Ceiling :
>= 8 km
>= 3000ft
5 to 8 km
1000 to 3000 ft
1500m to 5 km
500 to 1000 ft
800 to 1500m
200 to 500 ft
< 800m
< 200 ft
Symbols :   Thunderstorms  Fog  Heavy snow  Heavy precipitations  Wind > 20 kt
SIGMETs :     Misc.  Thunderstorms  Icing  Turbulence  Mountain Waves  Volcanic Ashes






- Airport Elevation : 7 ft
- IATA code : VCE


LIPZ - Marco Polo Int. Venezia

CURRENT METAR :
  • 261550Z 14006KT CAVOK 24/11 Q1017 NOSIG

EXPIRED METARs :
  • 261520Z 16004KT 120V200 CAVOK 24/07 Q1017 NOSIG
  • 261450Z 20004KT 160V230 CAVOK 24/07 Q1017 NOSIG
  • 261420Z 21007KT CAVOK 24/10 Q1017 NOSIG
  • 261350Z 21006KT 170V230 CAVOK 24/08 Q1017 NOSIG
  • 261320Z 19004KT 160V230 CAVOK 24/09 Q1017 NOSIG
  • 261250Z AUTO 19004KT 150V220 9999 NCD 24/10 Q1017
  • 261220Z AUTO 19005KT 9999 NCD 24/10 Q1017
  • 261150Z AUTO 20006KT 9999 NCD 23/13 Q1017
  • 261120Z AUTO 19005KT 150V220 9999 NCD 23/13 Q1017

TAF TAF LIPZ
Valid from the 26 at 12:00 until the 27 at 18:00 UTC


261100Z 2612/2718 VRB05KT CAVOK



MET'MAP, your aeronautical weather chart ! - Copyright ORBIFLY December 2007 - Disclaimer

ORBIFLY MET'MAP TEAM :

Programming & Development : Alexandra Zaïnal
Original concept : Baudouin d'Aumeries
Technical & hardware support : Manuel Goepfert
Assistance : Marc-Olivier Méhu




SOURCES & CREDITS :

   NOAA